Pongnae — 3FDZ8 — position and weather

sailwx.info

Track history (hours):
 
Tides and Currents Weather Stations Pressure Air Temp Water Temp Dewpoint Dewpoint Depression Visibility Wind Speed Wind Dir Waves Ship Positions

Pongnae

Operator: V Ships Leisure SAM

Last reported at 2015-May-26 07:31 UTC. Time now 2015-May-26 07:48 UTC.
Position N 22°18' E 114°13'.

Length 171 m; draft 6.6 m.

Type: Passenger vessel. MMSI: 353669000.

Date/timePositionNaut miles runAvg speedWind from/ knotsBaromVisibWave heightAir tempDewpointWater temp
2015-May-26 07:31N 22°18' E 114°13'0 0.0
2015-May-26 06:31N 22°18' E 114°13'0 0.1
2015-May-26 05:31N 22°18' E 114°13'0 0.0
2015-May-26 04:31N 22°18' E 114°13'0 0.0
2015-May-26 03:31N 22°18' E 114°13'0 0.0
2015-May-26 02:31N 22°18' E 114°13'0 0.1
2015-May-26 01:31N 22°18' E 114°13'0 0.1
2015-May-26 00:31N 22°18' E 114°13'2 1.6
2015-May-25 23:33N 22°17' E 114°15'9 8.5
2015-May-25 22:27N 22°08' E 114°19'4 0.7
2015-May-25 17:18N 22°05' E 114°18'0 0.1
2015-May-25 16:30N 22°05' E 114°18'7 2.3
2015-May-25 13:22N 22°12' E 114°19'8 9.8
2015-May-25 12:33N 22°18' E 114°13'0 0.0
2015-May-25 11:32N 22°18' E 114°13'0 0.0
2015-May-25 10:32N 22°18' E 114°13'0 0.0
2015-May-25 09:32N 22°18' E 114°13'0 0.0
2015-May-25 08:32N 22°18' E 114°13'0 0.0
2015-May-25 07:32N 22°18' E 114°13'0 0.1
2015-May-25 06:32N 22°18' E 114°13'0 0.0
2015-May-25 05:32N 22°18' E 114°13'0 0.0
2015-May-25 04:32N 22°18' E 114°13'0 0.0
2015-May-25 03:31N 22°18' E 114°13'0 0.0
2015-May-25 02:31N 22°18' E 114°13'0 0.1
2015-May-25 01:31N 22°18' E 114°13'0 0.1
2015-May-25 00:31N 22°18' E 114°13'1 1.5
2015-May-24 23:34N 22°17' E 114°15'9 8.6
2015-May-24 22:32N 22°09' E 114°20'3 0.3
2015-May-24 13:21N 22°12' E 114°18'7 8.7
2015-May-24 12:32N 22°18' E 114°13'0 0.1
2015-May-24 11:32N 22°18' E 114°13'0 0.0
2015-May-24 10:32N 22°18' E 114°13'0 0.0
2015-May-24 09:32N 22°18' E 114°13'0 0.1
2015-May-24 08:32N 22°18' E 114°13'0 0.0
2015-May-24 07:32N 22°18' E 114°13'0 0.1
2015-May-24 06:31N 22°18' E 114°13'0 0.1
2015-May-24 05:31N 22°18' E 114°13'0 0.0
2015-May-24 04:31N 22°18' E 114°13'0 0.1
2015-May-24 03:31N 22°18' E 114°13'0 0.0
2015-May-24 02:31N 22°18' E 114°13'0 0.0
2015-May-24 01:31N 22°18' E 114°13'0 0.0
2015-May-24 00:31N 22°18' E 114°13'2 2.3
2015-May-23 23:33N 22°17' E 114°15'6 6.4
2015-May-23 22:32N 22°12' E 114°20'7 6.2
2015-May-23 21:22N 22°05' E 114°18'8 1.0
2015-May-23 13:34N 22°13' E 114°18'7 6.5
2015-May-23 12:34N 22°18' E 114°13'0 0.1
2015-May-23 11:33N 22°18' E 114°13'0 0.0
2015-May-23 10:33N 22°18' E 114°13'0 0.1
2015-May-23 09:33N 22°18' E 114°13'0 0.0
2015-May-23 08:33N 22°18' E 114°13'0 0.1
2015-May-23 07:33N 22°18' E 114°13'0 0.0
2015-May-23 06:33N 22°18' E 114°13'0 0.0
2015-May-23 05:33N 22°18' E 114°13'0 0.0
2015-May-23 04:33N 22°18' E 114°13'0 0.1
2015-May-23 03:33N 22°18' E 114°13'0 0.0
2015-May-23 02:33N 22°18' E 114°13'0 0.0
2015-May-23 01:33N 22°18' E 114°13'0 0.0
2015-May-23 00:34N 22°18' E 114°13'1 0.9
2015-May-22 23:33N 22°17' E 114°14'11 5.5
2015-May-22 21:31N 22°07' E 114°20'7 0.9
2015-May-22 13:33N 22°14' E 114°17'5 5.2
2015-May-22 12:32N 22°18' E 114°13'0 0.0
2015-May-22 11:32N 22°18' E 114°13'0 0.0
2015-May-22 10:32N 22°18' E 114°13'0 0.1
2015-May-22 09:32N 22°18' E 114°13'0 0.0
2015-May-22 08:32N 22°18' E 114°13'0 0.0
2015-May-22 07:32N 22°18' E 114°13'0 0.1
2015-May-22 06:29N 22°18' E 114°13'0 0.1
2015-May-22 05:32N 22°18' E 114°13'0 0.0
2015-May-22 04:32N 22°18' E 114°13'0 0.0
2015-May-22 03:32N 22°18' E 114°13'0 0.0
2015-May-22 02:32N 22°18' E 114°13'0 0.0
2015-May-22 01:32N 22°18' E 114°13'0 0.0
2015-May-22 00:33N 22°18' E 114°13'2 1.9
2015-May-21 23:33N 22°17' E 114°15'6 5.9
2015-May-21 22:29N 22°13' E 114°21'7 6.5
2015-May-21 21:21N 22°06' E 114°19'5 0.9
2015-May-21 15:30N 22°12' E 114°19'6 6.4
2015-May-21 14:33N 22°16' E 114°15'2 2.1
2015-May-21 13:32N 22°18' E 114°13'0 0.1
2015-May-21 12:32N 22°18' E 114°13'0 0.0
2015-May-21 11:32N 22°18' E 114°13'0 0.0
2015-May-21 10:32N 22°18' E 114°13'0 0.0
2015-May-21 09:32N 22°18' E 114°13'0 0.0
2015-May-21 08:32N 22°18' E 114°13'0 0.1
2015-May-21 07:32N 22°18' E 114°13'0 0.0
2015-May-21 06:32N 22°18' E 114°13'0 0.1
2015-May-21 05:29N 22°18' E 114°13'0 0.0
2015-May-21 04:32N 22°18' E 114°13'0 0.0
2015-May-21 03:32N 22°18' E 114°13'0 0.0
2015-May-21 02:32N 22°18' E 114°13'0 0.0
2015-May-21 01:32N 22°18' E 114°13'0 0.0
2015-May-21 00:32N 22°18' E 114°13'0 0.0
2015-May-20 23:33N 22°18' E 114°13'2 1.8
2015-May-20 22:31N 22°17' E 114°15'0 0.0
2015-May-20 21:31N 22°17' E 114°15'2 1.7
2015-May-20 20:33N 22°16' E 114°16'4 0.6
2015-May-20 13:23N 22°12' E 114°18'7 8.3
2015-May-20 12:31N 22°18' E 114°13'0 0.1
2015-May-20 11:31N 22°18' E 114°13'0 0.0
2015-May-20 10:31N 22°18' E 114°13'0 0.1
2015-May-20 09:31N 22°18' E 114°13'0 0.0
2015-May-20 08:31N 22°18' E 114°13'0 0.1
2015-May-20 07:31N 22°18' E 114°13'0 0.0
2015-May-20 06:31N 22°18' E 114°13'0 0.0
2015-May-20 05:31N 22°18' E 114°13'0 0.0
2015-May-20 04:31N 22°18' E 114°13'0 0.0
2015-May-20 03:31N 22°18' E 114°13'0 0.0
2015-May-20 02:31N 22°18' E 114°13'0 0.0
2015-May-20 01:31N 22°18' E 114°13'0 0.1
2015-May-20 00:33N 22°18' E 114°13'1 0.8
2015-May-19 23:33N 22°17' E 114°14'9 8.6
2015-May-19 22:33N 22°10' E 114°20'2 0.2
2015-May-19 13:22N 22°12' E 114°19'8 9.8
2015-May-19 12:33N 22°18' E 114°13'0 0.1
2015-May-19 11:33N 22°18' E 114°13'0 0.0
2015-May-19 10:33N 22°18' E 114°13'0 0.1
2015-May-19 09:33N 22°18' E 114°13'0 0.0
2015-May-19 08:33N 22°18' E 114°13'0 0.1
2015-May-19 07:33N 22°18' E 114°13'0 0.1
2015-May-19 06:33N 22°18' E 114°13'0 0.0
2015-May-19 05:33N 22°18' E 114°13'0 0.0
2015-May-19 04:33N 22°18' E 114°13'0 0.1
2015-May-19 03:33N 22°18' E 114°13'0 0.0
2015-May-19 02:33N 22°18' E 114°13'0 0.1
2015-May-19 01:33N 22°18' E 114°13'0 0.0
2015-May-19 00:33N 22°18' E 114°13'1 1.2
2015-May-18 23:33N 22°17' E 114°14'9 8.7
2015-May-18 22:31N 22°09' E 114°19'3 0.3
2015-May-18 13:21N 22°12' E 114°19'8 9.8
2015-May-18 12:34N 22°18' E 114°13'0 0.1
2015-May-18 11:32N 22°18' E 114°13'0 0.0
2015-May-18 10:32N 22°18' E 114°13'0 0.0
2015-May-18 09:32N 22°18' E 114°13'0 0.1
2015-May-18 08:32N 22°18' E 114°13'0 0.1
2015-May-18 07:32N 22°18' E 114°13'0 0.0
2015-May-18 06:32N 22°18' E 114°13'0 0.0
2015-May-18 05:32N 22°18' E 114°13'0 0.1
2015-May-18 04:32N 22°18' E 114°13'0 0.0
2015-May-18 03:32N 22°18' E 114°13'0 0.1
2015-May-18 02:32N 22°18' E 114°13'0 0.1
2015-May-18 01:32N 22°18' E 114°13'0 0.0
2015-May-18 00:32N 22°18' E 114°13'1 0.8
2015-May-17 23:33N 22°17' E 114°14'9 9.1
2015-May-17 22:33N 22°10' E 114°19'3 0.3
2015-May-17 13:19N 22°12' E 114°19'7 9.3
2015-May-17 12:31N 22°18' E 114°13'0 0.0
2015-May-17 11:31N 22°18' E 114°13'0 0.0
2015-May-17 10:31N 22°18' E 114°13'0 0.1
2015-May-17 09:31N 22°18' E 114°13'0 0.1
2015-May-17 08:31N 22°18' E 114°13'0 0.1
2015-May-17 07:31N 22°18' E 114°13'0 0.0
2015-May-17 06:31N 22°18' E 114°13'0 0.1
2015-May-17 05:31N 22°18' E 114°13'0 0.0
2015-May-17 04:31N 22°18' E 114°13'0 0.0
2015-May-17 03:28N 22°18' E 114°13'0 0.1
2015-May-17 02:25N 22°18' E 114°13'0 0.1
2015-May-17 01:31N 22°18' E 114°13'0 0.1
2015-May-17 00:31N 22°18' E 114°13'1 1.1
2015-May-16 23:33N 22°17' E 114°14'10 9.3
2015-May-16 22:27N 22°08' E 114°20'4 0.4
2015-May-16 13:20N 22°12' E 114°19'810.2
2015-May-16 12:33N 22°18' E 114°13'0 0.1
2015-May-16 11:31N 22°18' E 114°13'0 0.0
2015-May-16 10:31N 22°18' E 114°13'0 0.0
2015-May-16 09:31N 22°18' E 114°13'0 0.0
2015-May-16 08:31N 22°18' E 114°13'  
Track history (hours):
 
Tides and Currents Weather Stations Pressure Air Temp Water Temp Dewpoint Dewpoint Depression Visibility Wind Speed Wind Dir Waves Ship Positions

Pongnae

Operator: V Ships Leisure SAM

Last reported at 2015-May-26 07:31 UTC. Time now 2015-May-26 07:49 UTC.
Position N 22°18' E 114°13'.

Length 171 m; draft 6.6 m.

Type: Passenger vessel. MMSI: 353669000.

Date/timePositionNaut miles runAvg speedWind from/ knotsBaromVisibWave heightAir tempDewpointWater temp
2015-May-26 07:31N 22°18' E 114°13'0 0.0
2015-May-26 06:31N 22°18' E 114°13'0 0.1
2015-May-26 05:31N 22°18' E 114°13'0 0.0
2015-May-26 04:31N 22°18' E 114°13'0 0.0
2015-May-26 03:31N 22°18' E 114°13'0 0.0
2015-May-26 02:31N 22°18' E 114°13'0 0.1
2015-May-26 01:31N 22°18' E 114°13'0 0.1
2015-May-26 00:31N 22°18' E 114°13'2 1.6
2015-May-25 23:33N 22°17' E 114°15'9 8.5
2015-May-25 22:27N 22°08' E 114°19'4 0.7
2015-May-25 17:18N 22°05' E 114°18'0 0.1
2015-May-25 16:30N 22°05' E 114°18'7 2.3
2015-May-25 13:22N 22°12' E 114°19'8 9.8
2015-May-25 12:33N 22°18' E 114°13'0 0.0
2015-May-25 11:32N 22°18' E 114°13'0 0.0
2015-May-25 10:32N 22°18' E 114°13'0 0.0
2015-May-25 09:32N 22°18' E 114°13'0 0.0
2015-May-25 08:32N 22°18' E 114°13'0 0.0
2015-May-25 07:32N 22°18' E 114°13'0 0.1
2015-May-25 06:32N 22°18' E 114°13'0 0.0
2015-May-25 05:32N 22°18' E 114°13'0 0.0
2015-May-25 04:32N 22°18' E 114°13'0 0.0
2015-May-25 03:31N 22°18' E 114°13'0 0.0
2015-May-25 02:31N 22°18' E 114°13'0 0.1
2015-May-25 01:31N 22°18' E 114°13'0 0.1
2015-May-25 00:31N 22°18' E 114°13'1 1.5
2015-May-24 23:34N 22°17' E 114°15'9 8.6
2015-May-24 22:32N 22°09' E 114°20'3 0.3
2015-May-24 13:21N 22°12' E 114°18'7 8.7
2015-May-24 12:32N 22°18' E 114°13'0 0.1
2015-May-24 11:32N 22°18' E 114°13'0 0.0
2015-May-24 10:32N 22°18' E 114°13'0 0.0
2015-May-24 09:32N 22°18' E 114°13'0 0.1
2015-May-24 08:32N 22°18' E 114°13'0 0.0
2015-May-24 07:32N 22°18' E 114°13'0 0.1
2015-May-24 06:31N 22°18' E 114°13'0 0.1
2015-May-24 05:31N 22°18' E 114°13'0 0.0
2015-May-24 04:31N 22°18' E 114°13'0 0.1
2015-May-24 03:31N 22°18' E 114°13'0 0.0
2015-May-24 02:31N 22°18' E 114°13'0 0.0
2015-May-24 01:31N 22°18' E 114°13'0 0.0
2015-May-24 00:31N 22°18' E 114°13'2 2.3
2015-May-23 23:33N 22°17' E 114°15'6 6.4
2015-May-23 22:32N 22°12' E 114°20'7 6.2
2015-May-23 21:22N 22°05' E 114°18'8 1.0
2015-May-23 13:34N 22°13' E 114°18'7 6.5
2015-May-23 12:34N 22°18' E 114°13'0 0.1
2015-May-23 11:33N 22°18' E 114°13'0 0.0
2015-May-23 10:33N 22°18' E 114°13'0 0.1
2015-May-23 09:33N 22°18' E 114°13'0 0.0
2015-May-23 08:33N 22°18' E 114°13'0 0.1
2015-May-23 07:33N 22°18' E 114°13'0 0.0
2015-May-23 06:33N 22°18' E 114°13'0 0.0
2015-May-23 05:33N 22°18' E 114°13'0 0.0
2015-May-23 04:33N 22°18' E 114°13'0 0.1
2015-May-23 03:33N 22°18' E 114°13'0 0.0
2015-May-23 02:33N 22°18' E 114°13'0 0.0
2015-May-23 01:33N 22°18' E 114°13'0 0.0
2015-May-23 00:34N 22°18' E 114°13'1 0.9
2015-May-22 23:33N 22°17' E 114°14'11 5.5
2015-May-22 21:31N 22°07' E 114°20'7 0.9
2015-May-22 13:33N 22°14' E 114°17'5 5.2
2015-May-22 12:32N 22°18' E 114°13'0 0.0
2015-May-22 11:32N 22°18' E 114°13'0 0.0
2015-May-22 10:32N 22°18' E 114°13'0 0.1
2015-May-22 09:32N 22°18' E 114°13'0 0.0
2015-May-22 08:32N 22°18' E 114°13'0 0.0
2015-May-22 07:32N 22°18' E 114°13'0 0.1
2015-May-22 06:29N 22°18' E 114°13'0 0.1
2015-May-22 05:32N 22°18' E 114°13'0 0.0
2015-May-22 04:32N 22°18' E 114°13'0 0.0
2015-May-22 03:32N 22°18' E 114°13'0 0.0
2015-May-22 02:32N 22°18' E 114°13'0 0.0
2015-May-22 01:32N 22°18' E 114°13'0 0.0
2015-May-22 00:33N 22°18' E 114°13'2 1.9
2015-May-21 23:33N 22°17' E 114°15'6 5.9
2015-May-21 22:29N 22°13' E 114°21'7 6.5
2015-May-21 21:21N 22°06' E 114°19'5 0.9
2015-May-21 15:30N 22°12' E 114°19'6 6.4
2015-May-21 14:33N 22°16' E 114°15'2 2.1
2015-May-21 13:32N 22°18' E 114°13'0 0.1
2015-May-21 12:32N 22°18' E 114°13'0 0.0
2015-May-21 11:32N 22°18' E 114°13'0 0.0
2015-May-21 10:32N 22°18' E 114°13'0 0.0
2015-May-21 09:32N 22°18' E 114°13'0 0.0
2015-May-21 08:32N 22°18' E 114°13'0 0.1
2015-May-21 07:32N 22°18' E 114°13'0 0.0
2015-May-21 06:32N 22°18' E 114°13'0 0.1
2015-May-21 05:29N 22°18' E 114°13'0 0.0
2015-May-21 04:32N 22°18' E 114°13'0 0.0
2015-May-21 03:32N 22°18' E 114°13'0 0.0
2015-May-21 02:32N 22°18' E 114°13'0 0.0
2015-May-21 01:32N 22°18' E 114°13'0 0.0
2015-May-21 00:32N 22°18' E 114°13'0 0.0
2015-May-20 23:33N 22°18' E 114°13'2 1.8
2015-May-20 22:31N 22°17' E 114°15'0 0.0
2015-May-20 21:31N 22°17' E 114°15'2 1.7
2015-May-20 20:33N 22°16' E 114°16'4 0.6
2015-May-20 13:23N 22°12' E 114°18'7 8.3
2015-May-20 12:31N 22°18' E 114°13'0 0.1
2015-May-20 11:31N 22°18' E 114°13'0 0.0
2015-May-20 10:31N 22°18' E 114°13'0 0.1
2015-May-20 09:31N 22°18' E 114°13'0 0.0
2015-May-20 08:31N 22°18' E 114°13'0 0.1
2015-May-20 07:31N 22°18' E 114°13'0 0.0
2015-May-20 06:31N 22°18' E 114°13'0 0.0
2015-May-20 05:31N 22°18' E 114°13'0 0.0
2015-May-20 04:31N 22°18' E 114°13'0 0.0
2015-May-20 03:31N 22°18' E 114°13'0 0.0
2015-May-20 02:31N 22°18' E 114°13'0 0.0
2015-May-20 01:31N 22°18' E 114°13'0 0.1
2015-May-20 00:33N 22°18' E 114°13'1 0.8
2015-May-19 23:33N 22°17' E 114°14'9 8.6
2015-May-19 22:33N 22°10' E 114°20'2 0.2
2015-May-19 13:22N 22°12' E 114°19'8 9.8
2015-May-19 12:33N 22°18' E 114°13'0 0.1
2015-May-19 11:33N 22°18' E 114°13'0 0.0
2015-May-19 10:33N 22°18' E 114°13'0 0.1
2015-May-19 09:33N 22°18' E 114°13'0 0.0
2015-May-19 08:33N 22°18' E 114°13'0 0.1
2015-May-19 07:33N 22°18' E 114°13'0 0.1
2015-May-19 06:33N 22°18' E 114°13'0 0.0
2015-May-19 05:33N 22°18' E 114°13'0 0.0
2015-May-19 04:33N 22°18' E 114°13'0 0.1
2015-May-19 03:33N 22°18' E 114°13'0 0.0
2015-May-19 02:33N 22°18' E 114°13'0 0.1
2015-May-19 01:33N 22°18' E 114°13'0 0.0
2015-May-19 00:33N 22°18' E 114°13'1 1.2
2015-May-18 23:33N 22°17' E 114°14'9 8.7
2015-May-18 22:31N 22°09' E 114°19'3 0.3
2015-May-18 13:21N 22°12' E 114°19'8 9.8
2015-May-18 12:34N 22°18' E 114°13'0 0.1
2015-May-18 11:32N 22°18' E 114°13'0 0.0
2015-May-18 10:32N 22°18' E 114°13'0 0.0
2015-May-18 09:32N 22°18' E 114°13'0 0.1
2015-May-18 08:32N 22°18' E 114°13'0 0.1
2015-May-18 07:32N 22°18' E 114°13'0 0.0
2015-May-18 06:32N 22°18' E 114°13'0 0.0
2015-May-18 05:32N 22°18' E 114°13'0 0.1
2015-May-18 04:32N 22°18' E 114°13'0 0.0
2015-May-18 03:32N 22°18' E 114°13'0 0.1
2015-May-18 02:32N 22°18' E 114°13'0 0.1
2015-May-18 01:32N 22°18' E 114°13'0 0.0
2015-May-18 00:32N 22°18' E 114°13'1 0.8
2015-May-17 23:33N 22°17' E 114°14'9 9.1
2015-May-17 22:33N 22°10' E 114°19'3 0.3
2015-May-17 13:19N 22°12' E 114°19'7 9.3
2015-May-17 12:31N 22°18' E 114°13'0 0.0
2015-May-17 11:31N 22°18' E 114°13'0 0.0
2015-May-17 10:31N 22°18' E 114°13'0 0.1
2015-May-17 09:31N 22°18' E 114°13'0 0.1
2015-May-17 08:31N 22°18' E 114°13'0 0.1
2015-May-17 07:31N 22°18' E 114°13'0 0.0
2015-May-17 06:31N 22°18' E 114°13'0 0.1
2015-May-17 05:31N 22°18' E 114°13'0 0.0
2015-May-17 04:31N 22°18' E 114°13'0 0.0
2015-May-17 03:28N 22°18' E 114°13'0 0.1
2015-May-17 02:25N 22°18' E 114°13'0 0.1
2015-May-17 01:31N 22°18' E 114°13'0 0.1
2015-May-17 00:31N 22°18' E 114°13'1 1.1
2015-May-16 23:33N 22°17' E 114°14'10 9.3
2015-May-16 22:27N 22°08' E 114°20'4 0.4
2015-May-16 13:20N 22°12' E 114°19'810.2
2015-May-16 12:33N 22°18' E 114°13'0 0.1
2015-May-16 11:31N 22°18' E 114°13'0 0.0
2015-May-16 10:31N 22°18' E 114°13'0 0.0
2015-May-16 09:31N 22°18' E 114°13'0 0.0
2015-May-16 08:31N 22°18' E 114°13'  

Dump ship's entire track history